Time;durP1;ratioP1;P1;durP2;ratioP2;P2;SDS_P1;SDS_P2;PMS_P1;PMS_P2;Temp;Humidity;BMP_temperature;BMP_pressure;BME280_temperature;BME280_humidity;BME280_pressure;Samples;Min_cycle;Max_cycle;Signal;HPM_P1;HPM_P2
2023/06/25 00:01:57;;;;;;;;;;;;;;;23.01;56.19;101684.38;4988406;28;4186;-64
2023/06/25 00:04:24;;;;;;;;;;;;;;;23.03;56.23;101686.63;4986437;28;4136;-64
2023/06/25 00:06:50;;;;;;;;;;;;;;;23.02;56.23;101693.78;4987446;28;4215;-64
2023/06/25 00:09:17;;;;;;;;;;;;;;;22.99;56.23;101699.44;4982911;28;4383;-64
2023/06/25 00:11:43;;;;;;;;;;;;;;;22.98;56.32;101689.28;4984991;28;4000;-65
2023/06/25 00:14:09;;;;;;;;;;;;;;;22.97;56.04;101692.81;4984436;28;4048;-64
2023/06/25 00:16:36;;;;;;;;;;;;;;;22.98;56.22;101694.31;4990102;28;4188;-64
2023/06/25 00:19:02;;;;;;;;;;;;;;;22.97;55.85;101693.53;4988396;28;4059;-64
2023/06/25 00:21:29;;;;;;;;;;;;;;;22.98;56.10;101691.44;4988410;28;4073;-64
2023/06/25 00:23:56;;;;;;;;;;;;;;;22.95;56.00;101696.34;4988892;28;3992;-64
2023/06/25 00:26:22;;;;;;;;;;;;;;;22.95;56.03;101690.59;4990656;28;4162;-64
2023/06/25 00:28:50;;;;;;;;;;;;;;;22.93;56.34;101702.03;4990643;28;4053;-65
2023/06/25 00:31:16;;;;;;;;;;;;;;;22.93;56.19;101698.38;4985794;28;4169;-65
2023/06/25 00:33:42;;;;;;;;;;;;;;;22.92;56.06;101697.63;4987959;28;4187;-65
2023/06/25 00:36:09;;;;;;;;;;;;;;;22.92;56.09;101691.84;4989862;28;4319;-65
2023/06/25 00:38:37;;;;;;;;;;;;;;;22.92;56.11;101696.91;4989851;28;4016;-64
2023/06/25 00:41:05;;;;;;;;;;;;;;;22.89;56.14;101695.31;5003209;28;4557;-64
2023/06/25 00:43:31;;;;;;;;;;;;;;;22.89;55.67;101693.16;4990648;28;4186;-65
2023/06/25 00:45:58;;;;;;;;;;;;;;;22.88;56.11;101685.88;4991417;28;4474;-64
2023/06/25 00:48:25;;;;;;;;;;;;;;;22.87;56.08;101677.88;4989999;28;4107;-65
2023/06/25 00:50:51;;;;;;;;;;;;;;;22.87;56.17;101689.44;4986955;28;4217;-65
2023/06/25 00:53:18;;;;;;;;;;;;;;;22.84;55.85;101682.81;4988180;28;4138;-64
2023/06/25 00:55:50;;;;;;;;;;;;;;;22.84;55.89;101682.81;4991767;28;4177;-65
2023/06/25 00:58:20;;;;;;;;;;;;;;;22.84;56.23;101682.81;5002768;28;4134;-64
2023/06/25 01:00:47;;;;;;;;;;;;;;;22.84;56.28;101688.59;4989686;28;4259;-65
2023/06/25 01:03:30;;;;;;;;;;;;;;;22.83;56.43;101689.97;4994309;28;4368;-64
2023/06/25 01:06:07;;;;;;;;;;;;;;;22.82;56.33;101685.59;4988078;28;4086;-64
2023/06/25 01:08:39;;;;;;;;;;;;;;;22.82;56.73;101688.47;4992966;28;4087;-64
2023/06/25 01:11:05;;;;;;;;;;;;;;;22.83;56.42;101680.56;5000694;28;3995;-64
2023/06/25 01:13:32;;;;;;;;;;;;;;;22.82;56.90;101685.59;5001020;28;4012;-65
2023/06/25 01:15:58;;;;;;;;;;;;;;;22.83;56.69;101692.84;4986269;28;4177;-65
2023/06/25 01:18:25;;;;;;;;;;;;;;;22.81;56.87;101681.19;5001091;28;4109;-64
2023/06/25 01:20:53;;;;;;;;;;;;;;;22.80;57.12;101680.47;4988589;28;4146;-64
2023/06/25 01:23:21;;;;;;;;;;;;;;;22.81;57.05;101669.66;4983650;28;4000;-64
2023/06/25 01:25:48;;;;;;;;;;;;;;;22.81;56.91;101678.31;4986685;28;4011;-60
2023/06/25 01:28:19;;;;;;;;;;;;;;;22.82;57.18;101673.31;4987385;28;4211;-66
2023/06/25 01:30:47;;;;;;;;;;;;;;;22.79;57.24;101670.31;4987148;28;4165;-66
2023/06/25 01:33:15;;;;;;;;;;;;;;;22.80;57.58;101677.56;5005888;28;4047;-66
2023/06/25 01:35:42;;;;;;;;;;;;;;;22.78;57.27;101665.19;4986849;28;4061;-66
2023/06/25 01:38:08;;;;;;;;;;;;;;;22.77;57.43;101675.97;4992454;28;4912;-65
2023/06/25 01:40:35;;;;;;;;;;;;;;;22.76;57.45;101667.97;4985865;28;4195;-66
2023/06/25 01:43:01;;;;;;;;;;;;;;;22.75;57.04;101663.59;4984575;28;4226;-65
2023/06/25 01:45:28;;;;;;;;;;;;;;;22.74;57.31;101665.72;4988350;28;4168;-66
2023/06/25 01:47:54;;;;;;;;;;;;;;;22.74;57.33;101659.94;5002869;28;3980;-66
2023/06/25 01:50:21;;;;;;;;;;;;;;;22.75;57.18;101655.66;4984419;28;5099;-66
2023/06/25 01:52:47;;;;;;;;;;;;;;;22.75;57.34;101658.56;4987989;28;3988;-66
2023/06/25 01:55:14;;;;;;;;;;;;;;;22.73;57.36;101651.94;5004062;28;4307;-66
2023/06/25 01:57:40;;;;;;;;;;;;;;;22.73;57.41;101646.16;4983935;28;4166;-66
2023/06/25 02:00:08;;;;;;;;;;;;;;;22.73;57.15;101649.06;4986344;28;4089;-66
2023/06/25 02:02:40;;;;;;;;;;;;;;;22.72;57.40;101647.53;4987435;28;4074;-66
2023/06/25 02:05:07;;;;;;;;;;;;;;;22.72;57.17;101647.53;4998340;28;4172;-66
2023/06/25 02:07:34;;;;;;;;;;;;;;;22.72;57.22;101638.88;5000805;28;4063;-66
2023/06/25 02:10:00;;;;;;;;;;;;;;;22.71;57.52;101646.81;4985697;28;4125;-65
2023/06/25 02:12:28;;;;;;;;;;;;;;;22.72;57.59;101638.88;4999722;28;4068;-66
2023/06/25 02:14:54;;;;;;;;;;;;;;;22.71;57.57;101643.19;4985206;28;4233;-66
2023/06/25 02:17:20;;;;;;;;;;;;;;;22.71;57.73;101648.94;5002670;28;4114;-65
2023/06/25 02:19:47;;;;;;;;;;;;;;;22.69;57.51;101646.69;4984738;28;4050;-66
2023/06/25 02:22:13;;;;;;;;;;;;;;;22.70;57.67;101642.44;4983678;28;4093;-66
2023/06/25 02:24:40;;;;;;;;;;;;;;;22.71;57.91;101648.94;5000689;28;4139;-66
2023/06/25 02:27:06;;;;;;;;;;;;;;;22.70;58.01;101639.53;5000565;28;4577;-66
2023/06/25 02:29:33;;;;;;;;;;;;;;;22.70;58.27;101641.66;4988107;28;4283;-66
2023/06/25 02:31:59;;;;;;;;;;;;;;;22.70;58.01;101653.22;4985225;28;4188;-66
2023/06/25 02:34:26;;;;;;;;;;;;;;;22.69;58.47;101634.41;5002361;28;4474;-66
2023/06/25 02:36:52;;;;;;;;;;;;;;;22.69;58.29;101643.81;4987556;28;4031;-66
2023/06/25 02:39:18;;;;;;;;;;;;;;;22.71;58.39;101640.28;4983781;28;4197;-66
2023/06/25 02:41:45;;;;;;;;;;;;;;;22.69;58.83;101632.25;5002208;28;4192;-65
2023/06/25 02:44:11;;;;;;;;;;;;;;;22.71;58.61;101631.63;4985374;28;4285;-66
2023/06/25 02:46:38;;;;;;;;;;;;;;;22.71;58.62;101631.63;4985027;28;4336;-66
2023/06/25 02:49:05;;;;;;;;;;;;;;;22.70;58.93;101624.34;4998275;28;4051;-66
2023/06/25 02:51:32;;;;;;;;;;;;;;;22.70;58.87;101627.22;4999464;28;4173;-66
2023/06/25 02:53:59;;;;;;;;;;;;;;;22.69;59.10;101629.38;5002536;28;4137;-65
2023/06/25 02:56:25;;;;;;;;;;;;;;;22.69;59.23;101622.88;4985214;28;4006;-66
2023/06/25 02:58:52;;;;;;;;;;;;;;;22.70;59.24;101624.34;4999093;28;4255;-66
2023/06/25 03:01:18;;;;;;;;;;;;;;;22.70;59.34;101633.00;4984357;28;4082;-66
2023/06/25 03:03:45;;;;;;;;;;;;;;;22.69;59.17;101620.72;4985164;28;4568;-66
2023/06/25 03:06:12;;;;;;;;;;;;;;;22.69;59.54;101620.72;4985239;28;4119;-67
2023/06/25 03:08:38;;;;;;;;;;;;;;;22.69;59.31;101634.41;4983602;28;4113;-66
2023/06/25 03:11:05;;;;;;;;;;;;;;;22.70;59.74;101624.34;4997973;28;4193;-66
2023/06/25 03:13:31;;;;;;;;;;;;;;;22.70;59.85;101621.47;4984721;28;4214;-66
2023/06/25 03:15:58;;;;;;;;;;;;;;;22.69;59.80;101623.59;5000463;28;4899;-65
2023/06/25 03:18:24;;;;;;;;;;;;;;;22.70;59.98;101615.69;4999082;28;5573;-66
2023/06/25 03:20:51;;;;;;;;;;;;;;;22.71;60.01;101617.19;4980452;28;4230;-66
2023/06/25 03:23:18;;;;;;;;;;;;;;;22.68;59.90;101615.59;4982497;28;4038;-66
2023/06/25 03:25:47;;;;;;;;;;;;;;;22.69;60.16;101619.97;4996618;28;4102;-66
2023/06/25 03:28:19;;;;;;;;;;;;;;;22.69;60.14;101617.09;4998298;28;4123;-65
2023/06/25 03:30:47;;;;;;;;;;;;;;;22.69;60.21;101617.09;4985715;28;4299;-66
2023/06/25 03:33:16;;;;;;;;;;;;;;;22.69;60.39;101608.44;4981499;28;4303;-66
2023/06/25 03:35:42;;;;;;;;;;;;;;;22.69;60.45;101614.19;4999164;28;4963;-66
2023/06/25 03:38:10;;;;;;;;;;;;;;;22.68;60.49;101601.19;4986151;28;4056;-66
2023/06/25 03:40:38;;;;;;;;;;;;;;;22.68;60.38;101606.94;4982906;28;4257;-66
2023/06/25 03:43:04;;;;;;;;;;;;;;;22.68;60.51;101609.84;4986204;28;4007;-66
2023/06/25 03:45:33;;;;;;;;;;;;;;;22.68;60.75;101616.34;4982385;28;4219;-66
2023/06/25 03:48:00;;;;;;;;;;;;;;;22.69;60.69;101608.44;5001286;28;4153;-66
2023/06/25 03:50:26;;;;;;;;;;;;;;;22.69;61.05;101605.53;4984250;28;4221;-66
2023/06/25 03:52:53;;;;;;;;;;;;;;;22.68;61.11;101604.06;4988867;28;4054;-66
2023/06/25 03:55:19;;;;;;;;;;;;;;;22.69;60.98;101605.53;5007117;28;4054;-66
2023/06/25 03:57:46;;;;;;;;;;;;;;;22.69;61.46;101609.16;5002592;28;4270;-66
2023/06/25 04:00:12;;;;;;;;;;;;;;;22.69;61.35;101600.50;4986195;28;4099;-66
2023/06/25 04:02:39;;;;;;;;;;;;;;;22.69;61.21;101600.50;4987530;28;4141;-66
2023/06/25 04:05:06;;;;;;;;;;;;;;;22.70;61.62;101598.34;5004318;28;4132;-65
2023/06/25 04:07:32;;;;;;;;;;;;;;;22.70;61.61;101607.03;4985152;28;3983;-66
2023/06/25 04:09:59;;;;;;;;;;;;;;;22.70;62.05;101607.03;5002463;28;4155;-65
2023/06/25 04:12:25;;;;;;;;;;;;;;;22.69;61.95;101606.28;5000694;28;4229;-66
2023/06/25 04:14:54;;;;;;;;;;;;;;;22.70;61.92;101601.25;5003242;28;4040;-66
2023/06/25 04:17:20;;;;;;;;;;;;;;;22.70;62.18;101607.78;4987273;28;4132;-65
2023/06/25 04:19:52;;;;;;;;;;;;;;;22.69;62.27;101600.50;4988828;28;4157;-66
2023/06/25 04:22:19;;;;;;;;;;;;;;;22.71;62.53;101608.53;4985407;28;4060;-66
2023/06/25 04:24:45;;;;;;;;;;;;;;;22.71;62.53;101602.75;4989160;28;4560;-66
2023/06/25 04:27:11;;;;;;;;;;;;;;;22.70;62.60;101604.91;4989208;28;4124;-66
2023/06/25 04:29:39;;;;;;;;;;;;;;;22.71;62.34;101596.97;4987803;28;4119;-66
2023/06/25 04:32:06;;;;;;;;;;;;;;;22.71;62.81;101605.66;5002067;28;4159;-66
2023/06/25 04:34:34;;;;;;;;;;;;;;;22.71;62.93;101602.75;4986583;28;4149;-66
2023/06/25 04:37:01;;;;;;;;;;;;;;;22.72;63.06;101598.47;4985978;28;4155;-65
2023/06/25 04:39:27;;;;;;;;;;;;;;;22.72;62.93;101592.69;5002750;28;4042;-66
2023/06/25 04:41:55;;;;;;;;;;;;;;;22.73;63.39;101588.41;5006773;28;4018;-66
2023/06/25 04:44:22;;;;;;;;;;;;;;;22.73;63.20;101597.09;4986805;28;4109;-66
2023/06/25 04:46:48;;;;;;;;;;;;;;;22.73;63.50;101597.09;5002059;28;4094;-66
2023/06/25 04:49:15;;;;;;;;;;;;;;;22.73;63.69;101599.97;5005971;28;4169;-66
2023/06/25 04:51:45;;;;;;;;;;;;;;;22.74;63.92;101601.44;4985087;28;3964;-66
2023/06/25 04:54:11;;;;;;;;;;;;;;;22.75;63.90;101602.97;4988542;28;4605;-66
2023/06/25 04:56:38;;;;;;;;;;;;;;;22.74;64.16;101604.34;4996908;28;4068;-66
2023/06/25 04:59:04;;;;;;;;;;;;;;;22.74;63.81;101607.22;4987713;28;4019;-66
2023/06/25 05:01:31;;;;;;;;;;;;;;;22.75;64.20;101605.84;4987988;28;4185;-66
2023/06/25 05:03:57;;;;;;;;;;;;;;;22.76;64.23;101595.78;4990476;28;4188;-65
2023/06/25 05:06:24;;;;;;;;;;;;;;;22.77;64.29;101594.41;4985851;28;4308;-67
2023/06/25 05:08:50;;;;;;;;;;;;;;;22.76;64.09;101593.63;4989434;28;4196;-66
2023/06/25 05:11:16;;;;;;;;;;;;;;;22.77;63.72;101594.41;4986131;28;4018;-66
2023/06/25 05:13:43;;;;;;;;;;;;;;;22.78;63.66;101587.22;4986999;28;4212;-66
2023/06/25 05:16:09;;;;;;;;;;;;;;;22.78;63.42;101587.22;4990028;28;4045;-66
2023/06/25 05:18:37;;;;;;;;;;;;;;;22.79;62.99;101591.59;4986327;28;4313;-65
2023/06/25 05:21:03;;;;;;;;;;;;;;;22.80;63.02;101587.31;4988325;28;4194;-66
2023/06/25 05:23:36;;;;;;;;;;;;;;;22.79;62.93;101598.13;4987692;28;4224;-66
2023/06/25 05:26:03;;;;;;;;;;;;;;;22.80;63.21;101595.97;4990401;28;5085;-66
2023/06/25 05:28:29;;;;;;;;;;;;;;;22.80;63.10;101593.09;4983263;28;4056;-66
2023/06/25 05:30:55;;;;;;;;;;;;;;;22.79;63.06;101606.78;4987771;28;4173;-66
2023/06/25 05:33:22;;;;;;;;;;;;;;;22.80;62.85;101593.09;4988120;28;4049;-66
2023/06/25 05:35:48;;;;;;;;;;;;;;;22.81;63.02;101594.56;4986221;28;4107;-66
2023/06/25 05:38:15;;;;;;;;;;;;;;;22.82;62.84;101595.34;4983551;28;4477;-66
2023/06/25 05:40:41;;;;;;;;;;;;;;;22.82;62.58;101593.19;4986032;28;4192;-67
2023/06/25 05:43:08;;;;;;;;;;;;;;;22.82;62.27;101584.53;4983974;28;4141;-66
2023/06/25 05:45:34;;;;;;;;;;;;;;;22.82;62.04;101592.44;4991820;28;4275;-66
2023/06/25 05:48:01;;;;;;;;;;;;;;;22.83;62.30;101585.25;4987195;28;4125;-66
2023/06/25 05:50:27;;;;;;;;;;;;;;;22.83;62.17;101591.78;4988751;28;4281;-66
2023/06/25 05:52:54;;;;;;;;;;;;;;;22.83;62.14;101591.78;4985084;28;4114;-66
2023/06/25 05:55:20;;;;;;;;;;;;;;;22.84;62.12;101598.28;4982494;28;4293;-65
2023/06/25 05:57:46;;;;;;;;;;;;;;;22.84;61.79;101599.06;4983175;28;4025;-66
2023/06/25 06:00:13;;;;;;;;;;;;;;;22.85;61.91;101588.25;4984500;28;4360;-66
2023/06/25 06:02:39;;;;;;;;;;;;;;;22.85;61.96;101588.25;4983898;28;4111;-66
2023/06/25 06:05:06;;;;;;;;;;;;;;;22.86;61.72;101586.84;4986817;28;4237;-66
2023/06/25 06:07:32;;;;;;;;;;;;;;;22.86;61.52;101584.72;4984274;28;4174;-66
2023/06/25 06:09:59;;;;;;;;;;;;;;;22.86;61.56;101584.72;4987803;28;4252;-66
2023/06/25 06:12:25;;;;;;;;;;;;;;;22.86;61.78;101590.50;4987997;28;4347;-66
2023/06/25 06:14:51;;;;;;;;;;;;;;;22.88;61.90;101593.47;4986949;28;4979;-66
2023/06/25 06:17:18;;;;;;;;;;;;;;;22.89;61.75;101588.44;4983154;28;4284;-66
2023/06/25 06:19:44;;;;;;;;;;;;;;;22.88;61.50;101587.69;4987752;28;3973;-66
2023/06/25 06:22:11;;;;;;;;;;;;;;;22.90;61.65;101584.91;4985778;28;4189;-66
2023/06/25 06:24:37;;;;;;;;;;;;;;;22.90;62.15;101584.91;4984936;28;4257;-66
2023/06/25 06:27:04;;;;;;;;;;;;;;;22.90;62.09;101587.78;4983410;28;4647;-66
2023/06/25 06:29:30;;;;;;;;;;;;;;;22.91;61.80;101589.28;4988687;28;4163;-66
2023/06/25 06:31:57;;;;;;;;;;;;;;;22.83;61.46;101580.22;4987459;28;4086;-67
2023/06/25 06:34:23;;;;;;;;;;;;;;;22.88;61.50;101576.13;4983854;28;4019;-67
2023/06/25 06:36:49;;;;;;;;;;;;;;;22.86;61.68;101572.41;4984563;28;4199;-66
2023/06/25 06:39:16;;;;;;;;;;;;;;;22.87;61.27;101574.66;4983104;28;4284;-66
2023/06/25 06:41:43;;;;;;;;;;;;;;;22.86;61.46;101567.41;4987898;28;4244;-67
2023/06/25 06:44:13;;;;;;;;;;;;;;;22.87;61.36;101573.91;4982845;28;4243;-66
2023/06/25 06:46:40;;;;;;;;;;;;;;;22.87;61.43;101566.00;4986440;28;4225;-66
2023/06/25 06:49:06;;;;;;;;;;;;;;;22.89;61.40;101571.13;4993899;28;4307;-67
2023/06/25 06:51:33;;;;;;;;;;;;;;;22.91;61.19;101577.75;4990992;28;4288;-68
2023/06/25 06:53:59;;;;;;;;;;;;;;;22.94;61.12;101579.31;4985684;28;4574;-67
2023/06/25 06:56:25;;;;;;;;;;;;;;;22.91;61.13;101571.97;4987211;28;4183;-67
2023/06/25 06:58:52;;;;;;;;;;;;;;;22.94;61.38;101579.31;4985517;28;4209;-68
2023/06/25 07:01:18;;;;;;;;;;;;;;;22.94;60.89;101573.53;4985057;28;4112;-67
2023/06/25 07:03:45;;;;;;;;;;;;;;;22.73;61.71;101583.38;4983391;28;4361;-73
2023/06/25 07:06:11;;;;;;;;;;;;;;;22.63;61.90;101585.03;4986430;28;4131;-73
2023/06/25 07:08:38;;;;;;;;;;;;;;;22.58;61.40;101581.19;4983321;28;3935;-73
2023/06/25 07:11:04;;;;;;;;;;;;;;;22.72;61.28;101576.13;4985354;28;4055;-74
2023/06/25 07:13:31;;;;;;;;;;;;;;;22.64;61.04;101575.72;4987798;28;4146;-74
2023/06/25 07:15:57;;;;;;;;;;;;;;;22.72;61.11;101576.13;4986372;28;4399;-74
2023/06/25 07:18:24;;;;;;;;;;;;;;;22.86;61.00;101570.28;4986041;28;4109;-70
2023/06/25 07:20:50;;;;;;;;;;;;;;;22.92;60.87;101573.44;4987339;28;4267;-68
2023/06/25 07:23:17;;;;;;;;;;;;;;;22.98;60.80;101573.00;4993853;28;4067;-68
2023/06/25 07:25:43;;;;;;;;;;;;;;;23.03;60.57;101573.97;4987173;28;4219;-68
2023/06/25 07:28:09;;;;;;;;;;;;;;;23.06;60.35;101566.88;4990445;28;4131;-62
2023/06/25 07:30:37;;;;;;;;;;;;;;;23.07;60.25;101571.28;4982717;28;4003;-68
2023/06/25 07:33:03;;;;;;;;;;;;;;;23.08;60.21;101570.59;4985194;28;4115;-68
2023/06/25 07:35:30;;;;;;;;;;;;;;;23.10;60.23;101572.84;4990050;28;4247;-68
2023/06/25 07:37:56;;;;;;;;;;;;;;;23.11;60.13;101574.31;4982690;28;4027;-65
2023/06/25 07:40:23;;;;;;;;;;;;;;;23.13;60.09;101572.28;4984209;28;4453;-68
2023/06/25 07:42:49;;;;;;;;;;;;;;;23.15;59.80;101578.16;4986395;28;4164;-68
2023/06/25 07:45:15;;;;;;;;;;;;;;;23.16;59.95;101573.13;4986077;28;4108;-68
2023/06/25 07:47:42;;;;;;;;;;;;;;;23.18;59.62;101573.19;4984169;28;4204;-68
2023/06/25 07:50:09;;;;;;;;;;;;;;;23.18;59.74;101579.75;4988173;28;4199;-68
2023/06/25 07:52:35;;;;;;;;;;;;;;;23.20;59.78;101576.19;4986351;28;4200;-67
2023/06/25 07:55:02;;;;;;;;;;;;;;;23.20;59.60;101576.97;4981141;28;4120;-67
2023/06/25 07:57:28;;;;;;;;;;;;;;;23.20;59.49;101576.19;4997450;28;4094;-67
2023/06/25 07:59:55;;;;;;;;;;;;;;;23.21;59.45;101580.59;4999972;28;4105;-68
2023/06/25 08:02:21;;;;;;;;;;;;;;;23.21;59.80;101578.44;4985612;28;4059;-68
2023/06/25 08:04:48;;;;;;;;;;;;;;;23.22;59.49;101584.97;4984620;28;4076;-68
2023/06/25 08:07:15;;;;;;;;;;;;;;;23.23;59.68;101574.91;4987627;28;4325;-67
2023/06/25 08:09:43;;;;;;;;;;;;;;;23.24;59.68;101576.38;4983560;28;4065;-68
2023/06/25 08:12:10;;;;;;;;;;;;;;;23.25;59.70;101571.34;4986120;28;4414;-68
2023/06/25 08:14:36;;;;;;;;;;;;;;;23.25;59.35;101569.22;4985468;28;4117;-68
2023/06/25 08:17:02;;;;;;;;;;;;;;;23.25;59.43;101572.13;4982807;28;4165;-67
2023/06/25 08:19:29;;;;;;;;;;;;;;;23.26;59.65;101567.81;4989343;28;4059;-68
2023/06/25 08:21:55;;;;;;;;;;;;;;;23.27;59.32;101575.06;4986647;28;4505;-68
2023/06/25 08:24:22;;;;;;;;;;;;;;;23.27;59.41;101575.06;4988903;28;4142;-67
2023/06/25 08:26:48;;;;;;;;;;;;;;;23.27;59.59;101569.28;4983650;28;3999;-68
2023/06/25 08:29:15;;;;;;;;;;;;;;;23.29;59.45;101568.66;4984720;28;4168;-64
2023/06/25 08:31:41;;;;;;;;;;;;;;;23.31;59.42;101569.47;4978698;28;4138;-65
2023/06/25 08:34:07;;;;;;;;;;;;;;;23.38;59.70;101570.50;4983163;28;4141;-66
2023/06/25 08:36:36;;;;;;;;;;;;;;;23.31;60.36;101572.38;4982260;28;4175;-64
2023/06/25 08:39:02;;;;;;;;;;;;;;;23.48;60.21;101573.88;4983329;28;4310;-64
2023/06/25 08:41:29;;;;;;;;;;;;;;;23.26;61.14;101570.69;4986839;28;4120;-64
2023/06/25 08:43:55;;;;;;;;;;;;;;;23.48;60.10;101576.75;4982691;28;5028;-64
2023/06/25 08:46:22;;;;;;;;;;;;;;;23.59;60.17;101572.16;4984101;28;4135;-65
2023/06/25 08:48:49;;;;;;;;;;;;;;;23.48;60.51;101573.09;4983643;28;4040;-64
2023/06/25 08:51:17;;;;;;;;;;;;;;;23.56;60.23;101571.31;4981922;28;4096;-67
2023/06/25 08:53:44;;;;;;;;;;;;;;;23.48;60.42;101562.31;4985205;28;4588;-64
2023/06/25 08:56:10;;;;;;;;;;;;;;;23.50;60.74;101556.63;4988580;28;4368;-65
2023/06/25 08:58:37;;;;;;;;;;;;;;;23.59;60.76;101567.13;4980645;28;4320;-65
2023/06/25 09:01:03;;;;;;;;;;;;;;;23.42;61.04;101574.31;4983598;28;4142;-64
2023/06/25 09:03:30;;;;;;;;;;;;;;;23.35;60.88;101575.44;4983371;28;4151;-64
2023/06/25 09:05:57;;;;;;;;;;;;;;;23.58;60.18;101570.66;4985609;28;4003;-63
2023/06/25 09:08:24;;;;;;;;;;;;;;;23.56;60.48;101564.78;4991954;28;4537;-64
2023/06/25 09:10:54;;;;;;;;;;;;;;;23.61;60.47;101560.69;4989988;28;4015;-64
2023/06/25 09:13:21;;;;;;;;;;;;;;;23.59;60.48;101563.47;4988954;28;4311;-64
2023/06/25 09:15:48;;;;;;;;;;;;;;;23.62;60.24;101562.94;4992746;28;4282;-64
2023/06/25 09:18:15;;;;;;;;;;;;;;;23.66;60.37;101556.56;4985441;28;4124;-63
2023/06/25 09:20:47;;;;;;;;;;;;;;;23.71;60.59;101551.69;4991489;28;4181;-64
2023/06/25 09:23:19;;;;;;;;;;;;;;;23.63;60.74;101563.66;4982571;28;4111;-64
2023/06/25 09:25:46;;;;;;;;;;;;;;;23.68;60.47;101558.81;4984432;28;4039;-64
2023/06/25 09:28:13;;;;;;;;;;;;;;;23.69;59.95;101561.06;4984259;28;4200;-64
2023/06/25 09:30:39;;;;;;;;;;;;;;;23.74;60.23;101556.94;4985987;28;4325;-64
2023/06/25 09:33:06;;;;;;;;;;;;;;;23.72;60.11;101556.84;4988127;28;4188;-63
2023/06/25 09:35:32;;;;;;;;;;;;;;;23.71;60.92;101555.34;4990609;28;4038;-64
2023/06/25 09:37:59;;;;;;;;;;;;;;;23.73;59.87;101549.66;4987009;28;4213;-64
2023/06/25 09:40:25;;;;;;;;;;;;;;;23.77;59.83;101552.75;4989175;28;4311;-64
2023/06/25 09:42:52;;;;;;;;;;;;;;;23.75;59.53;101546.88;4986284;28;4176;-63
2023/06/25 09:45:19;;;;;;;;;;;;;;;23.75;59.91;101546.13;4986477;28;4142;-63
2023/06/25 09:47:46;;;;;;;;;;;;;;;23.75;60.13;101549.00;4988224;28;4067;-63
2023/06/25 09:50:15;;;;;;;;;;;;;;;23.80;59.64;101542.75;4988852;28;4116;-63
2023/06/25 09:52:43;;;;;;;;;;;;;;;23.85;58.83;101535.00;4991356;28;4330;-64
2023/06/25 09:55:10;;;;;;;;;;;;;;;23.82;59.14;101539.97;4984634;28;4001;-64
2023/06/25 09:57:36;;;;;;;;;;;;;;;23.89;59.25;101526.50;4983255;28;4163;-69
2023/06/25 10:00:04;;;;;;;;;;;;;;;24.20;59.56;101534.28;4981839;28;4174;-69
2023/06/25 10:02:37;;;;;;;;;;;;;;;24.25;58.98;101526.53;5000481;28;4155;-66
2023/06/25 10:05:03;;;;;;;;;;;;;;;24.08;58.83;101525.13;5000244;28;4912;-66
2023/06/25 10:07:30;;;;;;;;;;;;;;;23.91;58.12;101522.94;4983883;28;4189;-66
2023/06/25 10:09:58;;;;;;;;;;;;;;;23.99;59.12;101515.34;5005086;28;4659;-67
2023/06/25 10:12:25;;;;;;;;;;;;;;;23.98;59.03;101516.78;4986896;28;4249;-67
2023/06/25 10:14:52;;;;;;;;;;;;;;;24.04;58.91;101507.59;4985818;28;3972;-66
2023/06/25 10:17:22;;;;;;;;;;;;;;;24.16;58.40;101513.88;4985884;28;4134;-66
2023/06/25 10:19:52;;;;;;;;;;;;;;;24.20;57.72;101502.47;4985915;28;4208;-67
2023/06/25 10:22:22;;;;;;;;;;;;;;;24.24;57.25;101501.91;4986512;28;4107;-68
2023/06/25 10:24:51;;;;;;;;;;;;;;;24.20;56.82;101502.47;4986884;28;4161;-67
2023/06/25 10:27:19;;;;;;;;;;;;;;;24.22;57.34;101505.44;4983767;28;4254;-66
2023/06/25 10:29:45;;;;;;;;;;;;;;;24.35;57.56;101500.13;4987488;28;4141;-67
2023/06/25 10:32:12;;;;;;;;;;;;;;;24.41;57.04;101497.50;4987108;28;4194;-68
2023/06/25 10:34:39;;;;;;;;;;;;;;;24.25;57.84;101488.91;4987407;28;5692;-67
2023/06/25 10:37:05;;;;;;;;;;;;;;;24.33;57.42;101497.19;4990910;28;4497;-67
2023/06/25 10:39:36;;;;;;;;;;;;;;;24.41;57.06;101497.50;4988350;28;4099;-67
2023/06/25 10:42:03;;;;;;;;;;;;;;;24.48;56.71;101496.34;4988625;28;4140;-68
2023/06/25 10:44:29;;;;;;;;;;;;;;;24.36;57.25;101498.75;4987080;28;4028;-66
2023/06/25 10:47:06;;;;;;;;;;;;;;;24.54;56.59;101493.69;4991936;28;4291;-66
2023/06/25 10:49:32;;;;;;;;;;;;;;;24.58;56.51;101488.06;4985023;28;4037;-69
2023/06/25 10:51:58;;;;;;;;;;;;;;;24.60;56.29;101488.16;4984642;28;5275;-67
2023/06/25 10:54:25;;;;;;;;;;;;;;;24.50;56.74;101481.94;4986544;28;4016;-66
2023/06/25 10:56:55;;;;;;;;;;;;;;;24.38;57.37;101478.56;4985906;28;4144;-67
2023/06/25 10:59:22;;;;;;;;;;;;;;;24.27;56.75;101476.66;5002085;28;4193;-68
2023/06/25 11:01:49;;;;;;;;;;;;;;;24.34;57.49;101470.44;4987936;28;4234;-68
2023/06/25 11:04:16;;;;;;;;;;;;;;;24.33;56.81;101468.25;4985217;28;4198;-70
2023/06/25 11:06:42;;;;;;;;;;;;;;;24.27;57.27;101465.09;4985064;28;4283;-70
2023/06/25 11:09:09;;;;;;;;;;;;;;;24.20;57.73;101467.72;4985760;28;4203;-69
2023/06/25 11:11:36;;;;;;;;;;;;;;;24.15;57.90;101468.97;4986284;28;4104;-70
2023/06/25 11:14:03;;;;;;;;;;;;;;;24.14;57.86;101470.38;4985671;28;4145;-70
2023/06/25 11:16:29;;;;;;;;;;;;;;;24.16;57.95;101473.34;4986927;28;4239;-70
2023/06/25 11:18:56;;;;;;;;;;;;;;;24.14;58.02;101458.81;4986390;28;4061;-71
2023/06/25 11:21:22;;;;;;;;;;;;;;;24.12;58.07;101467.44;4987865;28;3999;-70
2023/06/25 11:23:49;;;;;;;;;;;;;;;24.12;57.79;101458.75;4987514;28;5076;-68
2023/06/25 11:26:15;;;;;;;;;;;;;;;24.09;57.95;101462.19;4985404;28;4034;-70
2023/06/25 11:28:41;;;;;;;;;;;;;;;24.10;58.08;101452.88;4985408;28;3959;-71
2023/06/25 11:31:08;;;;;;;;;;;;;;;24.13;57.97;101456.59;4985153;28;4125;-71
2023/06/25 11:33:34;;;;;;;;;;;;;;;24.12;58.21;101449.28;4990270;28;4024;-70
2023/06/25 11:36:09;;;;;;;;;;;;;;;24.12;58.17;101437.72;4988199;28;4225;-70
2023/06/25 11:38:35;;;;;;;;;;;;;;;24.13;58.08;101439.22;4986565;28;4044;-70
2023/06/25 11:41:01;;;;;;;;;;;;;;;24.12;58.28;101444.28;4982702;28;4088;-70
2023/06/25 11:43:28;;;;;;;;;;;;;;;24.11;58.26;101447.81;4985907;28;4208;-70
2023/06/25 11:45:58;;;;;;;;;;;;;;;24.11;58.05;101437.00;4987082;28;4459;-70
2023/06/25 11:48:26;;;;;;;;;;;;;;;24.12;58.38;101431.94;4984163;28;4193;-71
2023/06/25 11:50:53;;;;;;;;;;;;;;;24.11;58.27;101434.09;4986074;28;4197;-70
2023/06/25 11:53:19;;;;;;;;;;;;;;;24.12;58.08;101432.69;4987018;28;4343;-70
2023/06/25 11:55:46;;;;;;;;;;;;;;;24.12;58.44;101429.81;4999274;28;4054;-70
2023/06/25 11:58:12;;;;;;;;;;;;;;;24.13;58.42;101427.66;4986525;28;4014;-70
2023/06/25 12:00:38;;;;;;;;;;;;;;;24.28;57.77;101426.81;4982132;28;4131;-66
2023/06/25 12:03:08;;;;;;;;;;;;;;;24.44;57.64;101427.44;4983462;28;4161;-65
2023/06/25 12:05:35;;;;;;;;;;;;;;;24.23;58.25;101425.16;4986032;28;4110;-69
2023/06/25 12:08:02;;;;;;;;;;;;;;;24.21;58.50;101417.16;4981897;28;4150;-69
2023/06/25 12:10:29;;;;;;;;;;;;;;;24.17;58.67;101419.88;4983156;28;4506;-69
2023/06/25 12:12:55;;;;;;;;;;;;;;;24.13;58.54;101421.88;4987899;28;4066;-69
2023/06/25 12:15:22;;;;;;;;;;;;;;;24.17;58.49;101422.78;4991057;28;4312;-69
2023/06/25 12:17:48;;;;;;;;;;;;;;;24.19;58.63;101424.97;4990188;28;4191;-69
2023/06/25 12:20:14;;;;;;;;;;;;;;;24.16;58.52;101418.38;4988691;28;4160;-69
2023/06/25 12:22:41;;;;;;;;;;;;;;;24.18;58.44;101418.44;4991383;28;4194;-69
2023/06/25 12:25:08;;;;;;;;;;;;;;;24.18;58.57;101406.16;4990402;28;4151;-69
2023/06/25 12:27:36;;;;;;;;;;;;;;;24.18;58.37;101401.09;4989276;28;4062;-70
2023/06/25 12:30:04;;;;;;;;;;;;;;;24.18;58.44;101401.09;4988804;28;4340;-69
2023/06/25 12:32:31;;;;;;;;;;;;;;;24.17;58.48;101402.50;4990425;28;4325;-70
2023/06/25 12:34:57;;;;;;;;;;;;;;;24.18;58.57;101395.31;4987995;28;4097;-69
2023/06/25 12:37:24;;;;;;;;;;;;;;;24.17;58.46;101396.00;4990630;28;4059;-70
2023/06/25 12:39:50;;;;;;;;;;;;;;;24.17;58.38;101387.31;4991015;28;5208;-69
2023/06/25 12:42:17;;;;;;;;;;;;;;;24.21;58.08;101394.00;4987614;28;4177;-68
2023/06/25 12:44:44;;;;;;;;;;;;;;;24.23;58.18;101384.63;4983056;28;4439;-70
2023/06/25 12:47:10;;;;;;;;;;;;;;;24.23;58.22;101391.19;4987602;28;4339;-69